Highlands Peak, California Weather observations

Data are for observation ending at time listed.
 Day   Time    Ave.   Ave.  Ave.  Vector   Max.   Stn.    Total    Solar   Ave.  
  of    of     Air    Rel.  Wind   Wind    Wind   Baro.  Precip.   Rad.    Soil  
Year   Day     Temp.  Hum.  Speed  Dir.    Gust   Pres.                    Temp. 
2015   (PST)    F      %     mph   deg.    mph     mb.     in.     W/m2     F   
------------------------------------------------------------------------------
 187    0:00   62.1    64    4.4    63      5.8   930.6    0.00       0    83.7
 187    0:10   59.2    71    5.1    66      6.4   930.7    0.00       0    83.5
 187    0:20   60.4    68    5.4    37      7.2   930.6    0.00       0    83.3
 187    0:30   62.3    63    5.9    32      6.8   930.5    0.00       0    83.2
 187    0:40   61.8    65    5.4    61      7.8   930.5    0.00       0    82.9
 187    0:50   62.2    65    5.4    65      8.5   930.5    0.00       0    82.7
 187    1:00   62.2    64    5.2    53      6.9   930.5    0.00       0    82.4
 187    1:10   62.0    65    6.0    55      7.4   930.4    0.00       0    82.3
 187    1:20   63.5    63    5.5     2      6.9   930.4    0.00       0    82.0
 187    1:30   65.0    61    5.8   340      8.1   930.4    0.00       0    81.9
 187    1:40   65.3    60    5.7   336      8.9   930.5    0.00       0    81.8
 187    1:50   65.3    60    5.1   351      8.5   930.6    0.00       0    81.6
 187    2:00   64.1    62    5.3    39      7.0   930.6    0.00       0    81.4
 187    2:10   64.1    62    5.6    51      8.1   930.5    0.00       0    81.2
 187    2:20   62.9    63    5.4    63      8.0   930.5    0.00       0    81.0
 187    2:30   62.4    64    5.2    64      6.6   930.4    0.00       0    80.8
 187    2:40   63.1    61    5.7    38      8.1   930.5    0.00       0    80.7
 187    2:50   60.5    67    3.6    58      5.5   930.6    0.00       0    80.5
 187    3:00   59.3    70    3.0    63      5.2   930.6    0.00       0    80.3
 187    3:10   58.9    71    1.9    27      2.9   930.7    0.00       0    80.2
 187    3:20   59.2    70    1.0     8      2.4   930.7    0.00       0    80.0
 187    3:30   56.1    76    2.4    35      3.8   930.7    0.00       0    79.8
 187    3:40   55.6    77    3.8    72      6.1   930.7    0.00       0    79.6
 187    3:50   59.8    68    4.2    55      5.8   930.7    0.00       0    79.5
 187    4:00   62.3    64    4.4    50      6.2   930.7    0.00       0    79.3
 187    4:10   62.4    64    4.4    45      6.9   930.6    0.00       0    79.2
 187    4:20   61.5    65    3.1    26      5.7   930.7    0.00       0    79.0
 187    4:30   61.2    67    2.9   318      4.6   930.7    0.00       0    78.9
 187    4:40   60.7    68    1.5   340      3.1   930.9    0.00       0    78.8
 187    4:50   60.1    69    1.3   324      3.1   930.9    0.00       1    78.7
 187    5:00   59.8    72    3.4   332      5.3   931.0    0.00       4    78.6
 187    5:10   59.9    71    3.1     9      4.3   931.1    0.00       8    78.4
 187    5:20   59.9    70    1.4   343      4.3   931.2    0.00      11    78.1
 187    5:30   60.6    67    1.0   346      2.6   931.2    0.00      14    78.1
 187    5:40   61.0    65    3.7    19      4.5   931.3    0.00      17    78.0
 187    5:50   61.4    58    3.9    62      4.6   931.4    0.00      20    77.9
 187    6:00   60.5    57    4.8    70      7.2   931.4    0.00      55    77.7
 187    6:10   62.2    52    4.7    55      6.2   931.4    0.00     211    77.4
 187    6:20   64.2    48    5.4    31      7.4   931.4    0.00     249    77.3
 187    6:30   65.0    50    2.8    41      6.1   931.5    0.00     286    77.2
 187    6:40   66.3    49    2.4     4      3.4   931.5    0.00     323    77.0
 187    6:50   64.1    56    2.6   330      3.6   931.6    0.00     360    76.9
 187    7:00   63.8    60    1.4    81      3.1   931.6    0.00     398    76.9
 187    7:10   63.9    64    0.4   109      2.3   931.6    0.00     437    76.9
 187    7:20   61.7    69    0.9   198      2.0   931.7    0.00     474    76.8
 187    7:30   60.4    75    1.3   146      3.1   931.8    0.00     509    76.8
 187    7:40   64.4    64    1.0   223      3.8   931.9    0.00     527    76.8
 187    7:50   66.1    57    1.9   345      5.8   931.9    0.00     577    76.7
 187    8:00   68.2    55    1.1   105      3.7   931.9    0.00     612    76.8
 187    8:10   61.7    73    1.4   255      3.6   932.1    0.00     637    76.7
 187    8:20   57.0    87    1.1   295      2.3   932.2    0.00     670    76.8
 187    8:30   55.9    90    1.4   293      2.9   932.2    0.00     699    76.8
 187    8:40   56.9    89    1.6   251      3.4   932.3    0.00     745    76.9
 187    8:50   57.2    89    1.9   182      3.6   932.4    0.00     771    77.1
 187    9:00   61.4    78    1.7   169      4.3   932.3    0.00     796    77.3
 187    9:10   60.9    79    1.1   225      2.6   932.3    0.00     829    77.5
 187    9:20   62.5    76    1.2   254      4.5   932.2    0.00     864    77.6
 187    9:30   61.6    78    2.0   230      4.1   932.2    0.00     893    77.7
 187    9:40   62.1    78    2.2   190      5.0   932.3    0.00     920    77.9
 187    9:50   64.8    71    0.6   235      1.9   932.3    0.00     942    78.2
 187   10:00   66.8    58    2.5   318      5.8   932.4    0.00     959    78.5
 187   10:10   67.7    56    2.8   300      6.4   932.4    0.00     977    78.7
 187   10:20   69.0    56    2.3   288      4.9   932.4    0.00     991    78.9
 187   10:30   69.4    57    2.4   306      5.0   932.4    0.00    1008    79.2
 187   10:40   69.4    56    2.5   282      4.5   932.5    0.00    1023    79.5
 187   10:50   68.9    54    3.0   254      7.3   932.5    0.00    1033    79.8
 187   11:00   69.1    55    2.9   262      7.0   932.4    0.00    1042    80.0
 187   11:10   68.8    61    2.7   259      5.3   932.4    0.00    1047    80.3
 187   11:20   67.2    67    2.3   282      5.7   932.4    0.00    1053    80.6
 187   11:30   66.8    68    1.9   264      4.2   932.3    0.00    1055    80.9
 187   11:40   66.6    68    2.2   260      4.7   932.3    0.00    1056    81.1
 187   11:50   67.1    67    1.6   241      3.9   932.3    0.00    1058    81.4
 187   12:00   69.3    60    1.7   252      6.4   932.2    0.00    1058    81.6
 187   12:10   69.1    58    3.5   288      8.1   932.2    0.00    1056    81.8
 187   12:20   68.7    59    3.7   282      7.5   932.2    0.00    1051    81.9
 187   12:30   69.3    57    3.6   289      9.6   932.2    0.00    1046    82.0
 187   12:40   69.3    56    5.8   280     10.7   932.2    0.00    1044    82.1
 187   12:50   69.8    56    3.9   270      7.2   932.1    0.00    1036    82.1
 187   13:00   71.3    53    3.8   285      8.3   932.1    0.00    1029    82.3
 187   13:10   71.6    53    3.9   275      7.5   932.0    0.00    1022    82.4
 187   13:20   73.0    50    4.4   288      8.3   931.9    0.00    1028    82.6
 187   13:30   72.2    51    6.2   282     13.4   931.9    0.00     907    82.9
 187   13:40   71.9    52    5.1   281      8.7   931.8    0.00     630    83.3
 187   13:50   71.8    52    3.9   285      7.7   931.8    0.00     917    83.6
 187   14:00   71.5    53    4.5   285      9.8   931.8    0.00     662    83.9
 187   14:10   71.8    53    5.0   282      9.8   931.7    0.00     962    84.3
 187   14:20   72.6    52    4.3   278      9.3   931.6    0.00     954    84.7
 187   14:30   72.1    53    2.7   273      6.4   931.5    0.00     903    85.1
 187   14:40   73.1    51    3.4   277      6.3   931.4    0.00     860    85.4
 187   14:50   74.4    47    3.8   278      6.9   931.3    0.00     845    85.7
 187   15:00   74.4    46    4.0   287      7.2   931.2    0.00     834    86.2
 187   15:10   75.6    43    5.2   291     11.2   931.1    0.00     811    86.6
 187   15:20   75.9    42    5.0   270      9.2   930.9    0.00     771    87.0
 187   15:30   76.0    42    5.1   266     10.2   930.8    0.00     733    87.3
 187   15:40   75.7    43    4.3   264      8.2   930.8    0.00     707    87.6
 187   15:50   75.1    46    3.9   263      6.5   930.7    0.00     677    88.0
 187   16:00   75.2    48    3.0   252      5.8   930.7    0.00     646    88.3
 187   16:10   74.4    46    4.1   265      7.1   930.5    0.00     614    88.6
 187   16:20   74.9    46    3.4   265      6.5   930.5    0.00     566    89.0
 187   16:30   75.5    46    3.8   272      6.6   930.4    0.00     547    89.2
 187   16:40   75.0    46    3.0   277      6.9   930.4    0.00     517    89.5
 187   16:50   75.6    45    3.5   272      6.2   930.3    0.00     482    89.7
 187   17:00   75.5    45    2.7   269      5.8   930.2    0.00     447    89.9
 187   17:10   75.2    47    3.9   263      6.4   930.2    0.00     411    90.1
 187   17:20   74.7    47    2.9   252      5.4   930.2    0.00     376    90.2
 187   17:30   74.8    48    2.3   273      4.9   930.2    0.00     341    90.4
 187   17:40   75.2    46    4.4   266      7.0   930.2    0.00     306    90.5
 187   17:50   74.4    48    3.8   264      6.2   930.2    0.00     271    90.6
 187   18:00   73.7    49    3.5   256      6.6   930.1    0.00     238    90.7
 187   18:10   74.1    49    3.7   276      5.8   930.1    0.00     204    90.7
 187   18:20   72.3    50    2.8   279      4.5   930.2    0.00     172    90.8
 187   18:30   72.1    52    4.4   278      6.6   930.2    0.00     143    90.8
 187   18:40   71.4    52    3.7   273      6.3   930.2    0.00     115    90.8
 187   18:50   70.9    53    4.8   279      7.2   930.3    0.00      90    90.7
 187   19:00   70.4    54    4.3   280      6.6   930.3    0.00      66    90.6
 187   19:10   69.7    54    2.5   282      4.2   930.3    0.00      44    90.6
 187   19:20   69.0    55    2.7   285      4.5   930.2    0.00      22    90.5
 187   19:30   67.7    57    3.0   281      3.9   930.3    0.00       7    90.4
 187   19:40   66.8    58    4.7   304      7.6   930.2    0.00       2    90.2
 187   19:50   66.3    58    5.9   310      9.3   930.1    0.00       1    90.1
 187   20:00   66.3    57    6.2   317      9.1   930.1    0.00       0    89.9
 187   20:10   66.8    55    7.9   311     10.2   930.1    0.00       0    89.7
 187   20:20   66.6    55    8.9   303     11.8   930.3    0.00       0    89.5
 187   20:30   66.4    55    8.2   303     12.3   930.4    0.00       0    89.3
 187   20:40   66.2    54    7.9   306     12.6   930.5    0.00       0    89.0
 187   20:50   66.6    52    9.2   306     11.8   930.6    0.00       0    88.8
 187   21:00   66.5    52    9.7   306     13.5   930.8    0.00       0    88.6
 187   21:10   66.5    51    8.7   304     11.5   930.9    0.00       0    88.4
 187   21:20   66.4    50    9.6   304     11.9   931.0    0.00       0    88.2
 187   21:30   66.4    50    8.5   319     11.4   931.0    0.00       0    88.1
 187   21:40   66.6    49    5.4   340      8.3   931.0    0.00       0    87.9
 187   21:50   67.3    47    4.1   310      6.2   931.0    0.00       0    87.5
 187   22:00   67.0    47    4.7   308      6.6   931.0    0.00       0    87.3
 187   22:10   66.0    49    3.3   318      4.7   931.0    0.00       0    87.1
 187   22:20   66.3    48    1.2    12      2.0   931.0    0.00       0    86.9
 187   22:30   67.2    46    1.3   317      2.0   931.0    0.00       0    86.6
 187   22:40   66.8    48    2.3   214      3.9   931.0    0.00       0    86.3
 187   22:50   66.5    49    1.1   150      1.9   931.0    0.00       0    86.2
 187   23:00   67.1    46    1.0    89      1.8   930.9    0.00       0    86.0
 187   23:10   67.4    45    1.3     9      3.3   931.0    0.00       0    85.7
 187   23:20   67.3    45    2.5    57      4.5   930.9    0.00       0    85.5
 187   23:30   67.4    44    2.3    73      4.5   930.9    0.00       0    85.3
 187   23:40   67.4    44    2.8    53      4.2   930.8    0.00       0    85.0

Return to Highlands Peak graphs page.


Western Regional Climate Center,wrcc@dri.edu